NCAR-RAP Real-Time Weather Data

Output produced by METARs form (08 May 2021  01:22 UTC)
found at http://weather.rap.ucar.edu/surface/
 
KVUO 080053Z AUTO 31011G18KT 10SM SCT060 SCT080 15/M01 A3030 RMK AO2 SLP261 T01501011
KVUO 072353Z AUTO 28007KT 10SM SCT065 BKN085 15/M01 A3029 RMK AO2 SLP257 60001 T01501006 10161 20094 55005
KVUO 072253Z AUTO 27010KT 10SM SCT060 SCT070 BKN085 16/01 A3029 RMK AO2 SLP256 T01610011
KVUO 072153Z AUTO 29008KT 10SM FEW070 SCT090 14/01 A3030 RMK AO2 RAE00 SLP259 P0000 T01390011
KVUO 072053Z AUTO 31011G15KT 6SM -RA BKN044 BKN055 OVC065 12/04 A3030 RMK AO2 RAB37 SLP261 P0001 60001 T01170044 51014
KVUO 071953Z AUTO VRB04KT 10SM FEW065 14/05 A3028 RMK AO2 RAE17 SLP254 P0000 T01390050
KVUO 071853Z AUTO 34009G21KT 10SM -RA BKN040 BKN047 OVC075 11/03 A3029 RMK AO2 RAB51 PRESRR SLP257 P0000 T01060033
KVUO 071753Z AUTO 25009KT 10SM SCT041 BKN050 13/02 A3026 RMK AO2 SLP248 T01280017 10128 20094 51007
KVUO 071653Z AUTO 28006KT 10SM FEW033 SCT044 12/03 A3026 RMK AO2 SLP248 T01220033
KVUO 071553Z AUTO 24003KT 10SM FEW065 SCT110 11/03 A3026 RMK AO2 SLP247 T01060033
KVUO 071453Z AUTO 25006KT 10SM BKN080 BKN100 10/04 A3024 RMK AO2 SLP241 T01000039 53012
KVUO 071353Z AUTO 24004KT 10SM SCT040 OVC070 09/04 A3023 RMK AO2 SLP236 T00940044
KVUO 071253Z AUTO 14004KT 10SM OVC047 09/04 A3022 RMK AO2 SLP232 T00940044